Time;durP1;ratioP1;P1;durP2;ratioP2;P2;SDS_P1;SDS_P2;PMS_P1;PMS_P2;Temp;Humidity;BMP_temperature;BMP_pressure;BME280_temperature;BME280_humidity;BME280_pressure;Samples;Min_cycle;Max_cycle;Signal;HPM_P1;HPM_P2
2022/11/23 00:01:31;;;;;;;;;;;;;;;;;;5073376;28;1400;-73
2022/11/23 00:03:58;;;;;;;;;;;;;;;;;;5073871;28;1131;-74
2022/11/23 00:06:24;;;;;;;;;;;;;;;;;;5074140;28;1985;-73
2022/11/23 00:08:52;;;;;;;;;;;;;;;;;;5073851;28;1067;-72
2022/11/23 00:11:19;;;;;;;;;;;;;;;;;;5073257;28;1488;-72
2022/11/23 00:13:45;;;;;;;;;;;;;;;;;;5073740;28;976;-73
2022/11/23 00:16:12;;;;;;;;;;;;;;;;;;5073942;28;1064;-72
2022/11/23 00:18:38;;;;;;;;;;;;;;;;;;5073154;28;995;-72
2022/11/23 00:21:05;;;;;;;;;;;;;;;;;;5073757;28;1379;-73
2022/11/23 00:23:31;;;;;;;;;;;;;;;;;;5072895;28;1094;-74
2022/11/23 00:25:59;;;;;;;;;;;;;;;;;;5073664;28;1918;-73
2022/11/23 00:28:25;;;;;;;;;;;;;;;;;;5073662;28;1067;-74
2022/11/23 00:30:51;;;;;;;;;;;;;;;;;;5072019;28;1343;-74
2022/11/23 00:33:18;;;;;;;;;;;;;;;;;;5071453;28;1286;-73
2022/11/23 00:35:44;;;;;;;;;;;;;;;;;;5073383;28;849;-72
2022/11/23 00:38:10;;;;;;;;;;;;;;;;;;5071231;28;1335;-74
2022/11/23 00:40:36;;;;;;;;;;;;;;;;;;5071559;28;1413;-74
2022/11/23 00:43:04;;;;;;;;;;;;;;;;;;5070880;28;1306;-74
2022/11/23 00:45:30;;;;;;;;;;;;;;;;;;5073045;28;1914;-75
2022/11/23 00:47:56;;;;;;;;;;;;;;;;;;5072021;28;1350;-74
2022/11/23 00:50:23;;;;;;;;;;;;;;;;;;5071701;28;1428;-74
2022/11/23 00:52:50;;;;;;;;;;;;;;;;;;5072464;28;786;-74
2022/11/23 00:55:17;;;;;;;;;;;;;;;;;;5071501;28;1223;-74
2022/11/23 00:57:43;;;;;;;;;;;;;;;;;;5068443;28;1155;-74
2022/11/23 01:00:12;;;;;;;;;;;;;;;;;;5068028;28;1392;-73
2022/11/23 01:02:39;;;;;;;;;;;;;;;;;;5067373;28;1317;-74
2022/11/23 01:05:06;;;;;;;;;;;;;;;;;;5071639;28;1902;-74
2022/11/23 01:07:32;;;;;;;;;;;;;;;;;;5066781;28;1205;-74
2022/11/23 01:09:58;;;;;;;;;;;;;;;;;;5068490;28;1278;-74
2022/11/23 01:12:24;;;;;;;;;;;;;;;;;;5066879;28;1099;-74
2022/11/23 01:14:52;;;;;;;;;;;;;;;;;;5071999;28;885;-74
2022/11/23 01:17:19;;;;;;;;;;;;;;;;;;5069278;28;791;-73
2022/11/23 01:19:46;;;;;;;;;;;;;;;;;;5070472;28;1313;-74
2022/11/23 01:22:13;;;;;;;;;;;;;;;;;;5069538;28;1400;-74
2022/11/23 01:24:41;;;;;;;;;;;;;;;;;;5066442;28;1982;-74
2022/11/23 01:27:08;;;;;;;;;;;;;;;;;;5072045;28;778;-74
2022/11/23 01:29:34;;;;;;;;;;;;;;;;;;5068358;28;1377;-74
2022/11/23 01:32:01;;;;;;;;;;;;;;;;;;5064854;28;1347;-74
2022/11/23 01:34:28;;;;;;;;;;;;;;;;;;5068060;28;1126;-73
2022/11/23 01:36:57;;;;;;;;;;;;;;;;;;5068608;28;1446;-73
2022/11/23 01:39:27;;;;;;;;;;;;;;;;;;5069754;28;2473;-74
2022/11/23 01:41:53;;;;;;;;;;;;;;;;;;5066001;28;1130;-74
2022/11/23 01:44:27;;;;;;;;;;;;;;;;;;5068497;28;1135;-73
2022/11/23 01:46:54;;;;;;;;;;;;;;;;;;5069720;28;1914;-74
2022/11/23 01:49:20;;;;;;;;;;;;;;;;;;5067898;28;1447;-74
2022/11/23 01:51:48;;;;;;;;;;;;;;;;;;5065698;28;1209;-74
2022/11/23 01:54:15;;;;;;;;;;;;;;;;;;5067733;28;1216;-74
2022/11/23 01:56:43;;;;;;;;;;;;;;;;;;5071780;28;758;-74
2022/11/23 01:59:10;;;;;;;;;;;;;;;;;;5067576;28;859;-74
2022/11/23 02:01:36;;;;;;;;;;;;;;;;;;5065555;28;1390;-74
2022/11/23 02:04:03;;;;;;;;;;;;;;;;;;5067140;28;1275;-74
2022/11/23 02:06:29;;;;;;;;;;;;;;;;;;5065156;28;1910;-74
2022/11/23 02:08:56;;;;;;;;;;;;;;;;;;5066984;28;929;-74
2022/11/23 02:11:23;;;;;;;;;;;;;;;;;;5065293;28;1453;-74
2022/11/23 02:13:50;;;;;;;;;;;;;;;;;;5067033;28;771;-74
2022/11/23 02:16:16;;;;;;;;;;;;;;;;;;5066062;28;1162;-74
2022/11/23 02:18:44;;;;;;;;;;;;;;;;;;5066163;28;1640;-73
2022/11/23 02:21:11;;;;;;;;;;;;;;;;;;5067004;28;1485;-73
2022/11/23 02:23:39;;;;;;;;;;;;;;;;;;5068289;28;1031;-74
2022/11/23 02:26:07;;;;;;;;;;;;;;;;;;5066537;28;1902;-74
2022/11/23 02:28:35;;;;;;;;;;;;;;;;;;5065994;28;1271;-74
2022/11/23 02:31:01;;;;;;;;;;;;;;;;;;5065602;28;1424;-74
2022/11/23 02:33:27;;;;;;;;;;;;;;;;;;5064246;28;1605;-74
2022/11/23 02:35:55;;;;;;;;;;;;;;;;;;5064939;28;1384;-74
2022/11/23 02:38:22;;;;;;;;;;;;;;;;;;5065834;28;862;-73
2022/11/23 02:40:48;;;;;;;;;;;;;;;;;;5065525;28;1388;-73
2022/11/23 02:43:15;;;;;;;;;;;;;;;;;;5064645;28;1176;-74
2022/11/23 02:45:43;;;;;;;;;;;;;;;;;;5066801;28;1917;-74
2022/11/23 02:48:09;;;;;;;;;;;;;;;;;;5070517;28;866;-74
2022/11/23 02:50:38;;;;;;;;;;;;;;;;;;5066464;28;1423;-74
2022/11/23 02:53:06;;;;;;;;;;;;;;;;;;5064724;28;1195;-74
2022/11/23 02:55:32;;;;;;;;;;;;;;;;;;5066849;28;901;-74
2022/11/23 02:58:00;;;;;;;;;;;;;;;;;;5065887;28;1180;-74
2022/11/23 03:00:29;;;;;;;;;;;;;;;;;;5064387;28;1403;-74
2022/11/23 03:02:58;;;;;;;;;;;;;;;;;;5064774;28;1190;-74
2022/11/23 03:05:24;;;;;;;;;;;;;;;;;;5065427;28;1902;-74
2022/11/23 03:07:51;;;;;;;;;;;;;;;;;;5065212;28;1365;-74
2022/11/23 03:10:18;;;;;;;;;;;;;;;;;;5064844;28;1322;-74
2022/11/23 03:12:46;;;;;;;;;;;;;;;;;;5064825;28;928;-74
2022/11/23 03:15:13;;;;;;;;;;;;;;;;;;5066547;28;774;-74
2022/11/23 03:17:41;;;;;;;;;;;;;;;;;;5065006;28;1578;-74
2022/11/23 03:20:11;;;;;;;;;;;;;;;;;;5065038;28;1830;-73
2022/11/23 03:22:41;;;;;;;;;;;;;;;;;;5063981;28;1323;-74
2022/11/23 03:25:09;;;;;;;;;;;;;;;;;;5065184;28;1614;-74
2022/11/23 03:27:37;;;;;;;;;;;;;;;;;;5065240;28;1918;-74
2022/11/23 03:30:04;;;;;;;;;;;;;;;;;;5067943;28;1388;-73
2022/11/23 03:32:33;;;;;;;;;;;;;;;;;;5066346;28;1285;-74
2022/11/23 03:35:00;;;;;;;;;;;;;;;;;;5067383;28;1240;-74
2022/11/23 03:37:28;;;;;;;;;;;;;;;;;;5065675;28;1148;-73
2022/11/23 03:39:54;;;;;;;;;;;;;;;;;;5064764;28;1288;-74
2022/11/23 03:42:55;;;;;;;;;;;;;;;;;;5031904;28;1217;-74
2022/11/23 03:45:22;;;;;;;;;;;;;;;;;;5065471;28;1906;-74
2022/11/23 03:47:49;;;;;;;;;;;;;;;;;;5064396;28;688;-74
2022/11/23 03:50:16;;;;;;;;;;;;;;;;;;5065197;28;1520;-74
2022/11/23 03:52:43;;;;;;;;;;;;;;;;;;5066115;28;882;-73
2022/11/23 03:55:13;;;;;;;;;;;;;;;;;;5068276;28;1218;-73
2022/11/23 03:57:39;;;;;;;;;;;;;;;;;;5072155;28;1382;-74
2022/11/23 04:00:07;;;;;;;;;;;;;;;;;;5069000;28;1341;-73
2022/11/23 04:02:39;;;;;;;;;;;;;;;;;;5071975;28;725;-74
2022/11/23 04:05:10;;;;;;;;;;;;;;;;;;5069265;28;1119;-74
2022/11/23 04:07:56;;;;;;;;;;;;;;;;;;5070969;28;706;-74
2022/11/23 04:10:25;;;;;;;;;;;;;;;;;;5068425;28;1354;-73
2022/11/23 04:13:01;;;;;;;;;;;;;;;;;;5067936;28;1486;-74
2022/11/23 04:15:28;;;;;;;;;;;;;;;;;;5072389;28;1439;-74
2022/11/23 04:17:54;;;;;;;;;;;;;;;;;;5070246;28;1256;-74
2022/11/23 04:20:21;;;;;;;;;;;;;;;;;;5069683;28;1293;-73
2022/11/23 04:22:47;;;;;;;;;;;;;;;;;;5066865;28;1336;-72
2022/11/23 04:25:15;;;;;;;;;;;;;;;;;;5068442;28;1175;-74
2022/11/23 04:27:41;;;;;;;;;;;;;;;;;;5068037;28;1976;-75
2022/11/23 04:30:08;;;;;;;;;;;;;;;;;;5067528;28;1467;-74
2022/11/23 04:32:36;;;;;;;;;;;;;;;;;;5067506;28;1394;-74
2022/11/23 04:35:04;;;;;;;;;;;;;;;;;;5068059;28;1420;-74
2022/11/23 04:37:31;;;;;;;;;;;;;;;;;;5067699;28;1319;-74
2022/11/23 04:39:57;;;;;;;;;;;;;;;;;;5067633;28;1333;-73
2022/11/23 04:42:35;;;;;;;;;;;;;;;;;;5067346;28;1336;-74
2022/11/23 04:45:02;;;;;;;;;;;;;;;;;;5068997;28;910;-74
2022/11/23 04:47:29;;;;;;;;;;;;;;;;;;5067717;28;1910;-74
2022/11/23 04:49:59;;;;;;;;;;;;;;;;;;5067685;28;1386;-74
2022/11/23 04:52:25;;;;;;;;;;;;;;;;;;5066977;28;1227;-74
2022/11/23 04:54:52;;;;;;;;;;;;;;;;;;5068709;28;772;-74
2022/11/23 04:57:18;;;;;;;;;;;;;;;;;;5068536;28;758;-74
2022/11/23 04:59:47;;;;;;;;;;;;;;;;;;5067501;28;1403;-74
2022/11/23 05:02:14;;;;;;;;;;;;;;;;;;5066717;28;1343;-74
2022/11/23 05:04:46;;;;;;;;;;;;;;;;;;5067149;28;1476;-74
2022/11/23 05:07:15;;;;;;;;;;;;;;;;;;5067527;28;1910;-74
2022/11/23 05:09:45;;;;;;;;;;;;;;;;;;5066986;28;1419;-74
2022/11/23 05:12:14;;;;;;;;;;;;;;;;;;5066814;28;1608;-74
2022/11/23 05:14:41;;;;;;;;;;;;;;;;;;5067075;28;1413;-73
2022/11/23 05:17:10;;;;;;;;;;;;;;;;;;5067223;28;1439;-74
2022/11/23 05:19:38;;;;;;;;;;;;;;;;;;5068616;28;1405;-74
2022/11/23 05:22:04;;;;;;;;;;;;;;;;;;5071256;28;938;-74
2022/11/23 05:24:33;;;;;;;;;;;;;;;;;;5067851;28;1318;-74
2022/11/23 05:27:07;;;;;;;;;;;;;;;;;;5063474;28;1976;-72
2022/11/23 05:29:34;;;;;;;;;;;;;;;;;;5019659;28;1278;-73
2022/11/23 05:32:01;;;;;;;;;;;;;;;;;;5005414;28;1136;-73
2022/11/23 05:34:33;;;;;;;;;;;;;;;;;;5023013;22;3613;-77
2022/11/23 05:37:02;;;;;;;;;;;;;;;;;;4996871;28;1258;-76
2022/11/23 05:39:28;;;;;;;;;;;;;;;;;;5007203;28;1239;-76
2022/11/23 05:41:55;;;;;;;;;;;;;;;;;;5005963;28;826;-77
2022/11/23 05:44:36;;;;;;;;;;;;;;;;;;4998057;28;1438;-77
2022/11/23 05:47:05;;;;;;;;;;;;;;;;;;4991348;28;2000;-77
2022/11/23 05:49:35;;;;;;;;;;;;;;;;;;5003533;28;1155;-77
2022/11/23 05:52:04;;;;;;;;;;;;;;;;;;5009764;28;1232;-77
2022/11/23 05:54:32;;;;;;;;;;;;;;;;;;4965775;28;1563;-76
2022/11/23 05:57:09;;;;;;;;;;;;;;;;;;4973319;28;1316;-79
2022/11/23 05:59:38;;;;;;;;;;;;;;;;;;4934722;28;981;-79
2022/11/23 06:02:07;;;;;;;;;;;;;;;;;;4933967;28;1884;-78
2022/11/23 06:04:37;;;;;;;;;;;;;;;;;;4983917;28;1298;-78
2022/11/23 06:07:06;;;;;;;;;;;;;;;;;;5007018;28;1993;-78
2022/11/23 06:09:52;;;;;;;;;;;;;;;;;;4992692;28;1415;-78
2022/11/23 06:12:18;;;;;;;;;;;;;;;;;;4987120;28;1339;-79
2022/11/23 06:14:44;;;;;;;;;;;;;;;;;;5020029;28;1298;-79
2022/11/23 06:17:14;;;;;;;;;;;;;;;;;;4993487;28;1344;-75
2022/11/23 06:19:45;;;;;;;;;;;;;;;;;;4981040;28;842;-75
2022/11/23 06:22:12;;;;;;;;;;;;;;;;;;4969572;28;1616;-75
2022/11/23 06:24:47;;;;;;;;;;;;;;;;;;4971196;28;1344;-76
2022/11/23 06:27:38;;;;;;;;;;;;;;;;;;4978587;28;1953;-75
2022/11/23 06:30:14;;;;;;;;;;;;;;;;;;5010673;28;1345;-77
2022/11/23 06:32:41;;;;;;;;;;;;;;;;;;5045081;28;1353;-76
2022/11/23 06:35:10;;;;;;;;;;;;;;;;;;5054611;28;1474;-78
2022/11/23 06:37:39;;;;;;;;;;;;;;;;;;5057830;28;1217;-78
2022/11/23 06:40:06;;;;;;;;;;;;;;;;;;5048648;28;1534;-78
2022/11/23 06:42:33;;;;;;;;;;;;;;;;;;5056136;28;1371;-78
2022/11/23 06:44:59;;;;;;;;;;;;;;;;;;5061411;28;1433;-79
2022/11/23 06:47:27;;;;;;;;;;;;;;;;;;5066778;28;1902;-80
2022/11/23 06:49:58;;;;;;;;;;;;;;;;;;5078074;28;1387;-79
2022/11/23 06:52:29;;;;;;;;;;;;;;;;;;5089882;28;1320;-79
2022/11/23 06:54:55;;;;;;;;;;;;;;;;;;5086377;28;1622;-79
2022/11/23 06:57:23;;;;;;;;;;;;;;;;;;5061867;28;1497;-79
2022/11/23 06:59:50;;;;;;;;;;;;;;;;;;5057906;28;2090;-78
2022/11/23 07:02:23;;;;;;;;;;;;;;;;;;5050883;28;1112;-79
2022/11/23 07:04:51;;;;;;;;;;;;;;;;;;5056729;28;1103;-78
2022/11/23 07:07:17;;;;;;;;;;;;;;;;;;5054576;28;1969;-79
2022/11/23 07:09:51;;;;;;;;;;;;;;;;;;5054769;28;1578;-79
2022/11/23 07:12:24;;;;;;;;;;;;;;;;;;5059357;28;1665;-79
2022/11/23 07:14:50;;;;;;;;;;;;;;;;;;5076083;28;1314;-78
2022/11/23 07:17:17;;;;;;;;;;;;;;;;;;5077347;28;1280;-80
2022/11/23 07:19:43;;;;;;;;;;;;;;;;;;5074163;28;1686;-80
2022/11/23 07:22:10;;;;;;;;;;;;;;;;;;5071203;28;1677;-82
2022/11/23 07:24:38;;;;;;;;;;;;;;;;;;5068752;28;1470;-82
2022/11/23 07:27:07;;;;;;;;;;;;;;;;;;5060956;28;1906;-80
2022/11/23 07:29:34;;;;;;;;;;;;;;;;;;5061851;28;1345;-79
2022/11/23 07:32:01;;;;;;;;;;;;;;;;;;5057092;28;1216;-79
2022/11/23 07:34:28;;;;;;;;;;;;;;;;;;5054406;28;1453;-78
2022/11/23 07:36:55;;;;;;;;;;;;;;;;;;5056247;28;1304;-79
2022/11/23 07:39:22;;;;;;;;;;;;;;;;;;5056340;28;1281;-78
2022/11/23 07:41:50;;;;;;;;;;;;;;;;;;5060112;28;1594;-79
2022/11/23 07:44:22;;;;;;;;;;;;;;;;;;5066004;28;1402;-82
2022/11/23 07:46:52;;;;;;;;;;;;;;;;;;5076653;28;1878;-80
2022/11/23 07:49:18;;;;;;;;;;;;;;;;;;5065766;28;1800;-78
2022/11/23 07:51:45;;;;;;;;;;;;;;;;;;5057365;28;2321;-79
2022/11/23 07:54:11;;;;;;;;;;;;;;;;;;5057339;28;1807;-79
2022/11/23 07:56:37;;;;;;;;;;;;;;;;;;5063780;28;1177;-79
2022/11/23 07:59:04;;;;;;;;;;;;;;;;;;5056634;28;1747;-81
2022/11/23 08:01:31;;;;;;;;;;;;;;;;;;5072287;28;1406;-82
2022/11/23 08:03:57;;;;;;;;;;;;;;;;;;5082334;28;1451;-81
2022/11/23 08:06:24;;;;;;;;;;;;;;;;;;5070609;28;1649;-79
2022/11/23 08:08:50;;;;;;;;;;;;;;;;;;5085584;28;1890;-79
2022/11/23 08:11:17;;;;;;;;;;;;;;;;;;5064462;28;2018;-78
2022/11/23 08:13:44;;;;;;;;;;;;;;;;;;5054033;28;2027;-80
2022/11/23 08:16:10;;;;;;;;;;;;;;;;;;5064199;28;1673;-78
2022/11/23 08:18:38;;;;;;;;;;;;;;;;;;5067207;28;2034;-79
2022/11/23 08:21:04;;;;;;;;;;;;;;;;;;5053759;28;1547;-78
2022/11/23 08:23:30;;;;;;;;;;;;;;;;;;5055173;28;1913;-78
2022/11/23 08:25:57;;;;;;;;;;;;;;;;;;5056240;28;1787;-76
2022/11/23 08:28:23;;;;;;;;;;;;;;;;;;5053050;28;2101;-78
2022/11/23 08:30:49;;;;;;;;;;;;;;;;;;5052435;28;1700;-78
2022/11/23 08:33:16;;;;;;;;;;;;;;;;;;5056961;28;1980;-77
2022/11/23 08:35:44;;;;;;;;;;;;;;;;;;5053605;28;1798;-77
2022/11/23 08:38:10;;;;;;;;;;;;;;;;;;5059333;28;1860;-78
2022/11/23 08:40:36;;;;;;;;;;;;;;;;;;5059474;28;2003;-78
2022/11/23 08:43:03;;;;;;;;;;;;;;;;;;5061124;28;1763;-78
2022/11/23 08:45:29;;;;;;;;;;;;;;;;;;5050517;28;1781;-77
2022/11/23 08:47:59;;;;;;;;;;;;;;;;;;5050865;28;2000;-78
2022/11/23 08:50:25;;;;;;;;;;;;;;;;;;5053227;28;1788;-78
2022/11/23 08:52:56;;;;;;;;;;;;;;;;;;5065351;28;1512;-78
2022/11/23 08:55:22;;;;;;;;;;;;;;;;;;5058589;28;1383;-79
2022/11/23 08:57:49;;;;;;;;;;;;;;;;;;5067739;28;1282;-79
2022/11/23 09:00:15;;;;;;;;;;;;;;;;;;5056633;28;1837;-79
2022/11/23 09:02:42;;;;;;;;;;;;;;;;;;5058108;28;1708;-79
2022/11/23 09:05:08;;;;;;;;;;;;;;;;;;5057229;28;1696;-79
2022/11/23 09:07:34;;;;;;;;;;;;;;;;;;5053159;28;2057;-79
2022/11/23 09:10:02;;;;;;;;;;;;;;;;;;5061950;28;2650;-78
2022/11/23 09:12:28;;;;;;;;;;;;;;;;;;5053090;28;1570;-78
2022/11/23 09:14:55;;;;;;;;;;;;;;;;;;5064768;28;1279;-78
2022/11/23 09:17:21;;;;;;;;;;;;;;;;;;5070354;28;1140;-77
2022/11/23 09:19:49;;;;;;;;;;;;;;;;;;5053470;28;1896;-78
2022/11/23 09:22:15;;;;;;;;;;;;;;;;;;5059261;28;1770;-77
2022/11/23 09:24:41;;;;;;;;;;;;;;;;;;5053556;28;1764;-78
2022/11/23 09:27:09;;;;;;;;;;;;;;;;;;5051051;28;1910;-78
2022/11/23 09:29:35;;;;;;;;;;;;;;;;;;5054747;28;1155;-78
2022/11/23 09:32:01;;;;;;;;;;;;;;;;;;5058533;28;1754;-78
2022/11/23 09:34:28;;;;;;;;;;;;;;;;;;5051347;28;1812;-79
2022/11/23 09:36:56;;;;;;;;;;;;;;;;;;5059259;28;1863;-79
2022/11/23 09:39:22;;;;;;;;;;;;;;;;;;5039813;28;1135;-80
2022/11/23 09:41:52;;;;;;;;;;;;;;;;;;5045560;28;1408;-79
2022/11/23 09:44:21;;;;;;;;;;;;;;;;;;5059110;28;1465;-79
2022/11/23 09:46:48;;;;;;;;;;;;;;;;;;5075351;28;1068;-79
2022/11/23 09:49:15;;;;;;;;;;;;;;;;;;5074981;28;1983;-79
2022/11/23 09:51:42;;;;;;;;;;;;;;;;;;5059251;28;1660;-79
2022/11/23 09:54:10;;;;;;;;;;;;;;;;;;5059648;28;1475;-78
2022/11/23 09:56:38;;;;;;;;;;;;;;;;;;5060482;28;1767;-80
2022/11/23 09:59:05;;;;;;;;;;;;;;;;;;5066041;28;1223;-79
2022/11/23 10:01:33;;;;;;;;;;;;;;;;;;5064301;28;1461;-79
2022/11/23 10:03:59;;;;;;;;;;;;;;;;;;5058322;28;1649;-79
2022/11/23 10:06:26;;;;;;;;;;;;;;;;;;5072165;28;1823;-80
2022/11/23 10:08:55;;;;;;;;;;;;;;;;;;5067419;28;1977;-80
2022/11/23 10:11:35;;;;;;;;;;;;;;;;;;5063373;28;1056;-80
2022/11/23 10:14:04;;;;;;;;;;;;;;;;;;5064354;28;1882;-82
2022/11/23 10:16:35;;;;;;;;;;;;;;;;;;5074306;28;1155;-80
2022/11/23 10:19:03;;;;;;;;;;;;;;;;;;5070769;28;1137;-81
2022/11/23 10:21:33;;;;;;;;;;;;;;;;;;5058979;28;1446;-81
2022/11/23 10:24:03;;;;;;;;;;;;;;;;;;5059794;28;1401;-79
2022/11/23 10:26:30;;;;;;;;;;;;;;;;;;5060184;28;1044;-80
2022/11/23 10:28:56;;;;;;;;;;;;;;;;;;5059757;28;1906;-79
2022/11/23 10:31:24;;;;;;;;;;;;;;;;;;5061033;28;2030;-80
2022/11/23 10:33:53;;;;;;;;;;;;;;;;;;5060901;28;1873;-81
2022/11/23 10:36:21;;;;;;;;;;;;;;;;;;5059510;28;1913;-79
2022/11/23 10:38:49;;;;;;;;;;;;;;;;;;5055649;28;2195;-79
2022/11/23 10:41:15;;;;;;;;;;;;;;;;;;5055532;28;1866;-76
2022/11/23 10:43:43;;;;;;;;;;;;;;;;;;5053445;28;1570;-79
2022/11/23 10:46:23;;;;;;;;;;;;;;;;;;5060456;28;1464;-79
2022/11/23 10:48:49;;;;;;;;;;;;;;;;;;5066571;28;1992;-79
2022/11/23 10:51:15;;;;;;;;;;;;;;;;;;5063627;28;1608;-76
2022/11/23 10:53:43;;;;;;;;;;;;;;;;;;5058765;28;1398;-79
2022/11/23 10:56:11;;;;;;;;;;;;;;;;;;5054317;28;1393;-80
2022/11/23 10:58:41;;;;;;;;;;;;;;;;;;5055648;28;1447;-78
2022/11/23 11:01:14;;;;;;;;;;;;;;;;;;5065245;28;1585;-79
2022/11/23 11:03:43;;;;;;;;;;;;;;;;;;5053211;28;1597;-79
2022/11/23 11:06:09;;;;;;;;;;;;;;;;;;5059607;28;1644;-78
2022/11/23 11:08:36;;;;;;;;;;;;;;;;;;5060055;28;1980;-78
2022/11/23 11:11:04;;;;;;;;;;;;;;;;;;5062332;28;1652;-78
2022/11/23 11:13:31;;;;;;;;;;;;;;;;;;5058315;28;1487;-79
2022/11/23 11:15:59;;;;;;;;;;;;;;;;;;5060693;28;1470;-78
2022/11/23 11:18:27;;;;;;;;;;;;;;;;;;5065597;28;1545;-78
2022/11/23 11:20:56;;;;;;;;;;;;;;;;;;5064435;28;1529;-78
2022/11/23 11:23:22;;;;;;;;;;;;;;;;;;5053058;28;1932;-78
2022/11/23 11:25:48;;;;;;;;;;;;;;;;;;5054607;28;2082;-80
2022/11/23 11:28:20;;;;;;;;;;;;;;;;;;5066640;28;1910;-79
2022/11/23 11:30:48;;;;;;;;;;;;;;;;;;5062518;28;1683;-80
2022/11/23 11:33:16;;;;;;;;;;;;;;;;;;5072825;28;1393;-79
2022/11/23 11:35:42;;;;;;;;;;;;;;;;;;5062462;28;1468;-80
2022/11/23 11:38:10;;;;;;;;;;;;;;;;;;5067915;28;1443;-80
2022/11/23 11:40:37;;;;;;;;;;;;;;;;;;5068964;28;1141;-79
2022/11/23 11:43:04;;;;;;;;;;;;;;;;;;5065878;23;3682;-75
2022/11/23 11:45:33;;;;;;;;;;;;;;;;;;5067992;28;1628;-76
2022/11/23 11:47:59;;;;;;;;;;;;;;;;;;5068172;28;1942;-74
2022/11/23 11:50:27;;;;;;;;;;;;;;;;;;5056363;28;1724;-74
2022/11/23 11:52:55;;;;;;;;;;;;;;;;;;5058533;28;1612;-75
2022/11/23 11:55:22;;;;;;;;;;;;;;;;;;5064531;28;1225;-75
2022/11/23 11:57:49;;;;;;;;;;;;;;;;;;5069681;28;1795;-75
2022/11/23 12:00:16;;;;;;;;;;;;;;;;;;5072989;28;1333;-75
2022/11/23 12:02:49;;;;;;;;;;;;;;;;;;5062582;28;1754;-74
2022/11/23 12:05:16;;;;;;;;;;;;;;;;;;5061119;28;1754;-75
2022/11/23 12:07:44;;;;;;;;;;;;;;;;;;5062204;28;1505;-75
2022/11/23 12:10:11;;;;;;;;;;;;;;;;;;5068554;28;1976;-75
2022/11/23 12:12:38;;;;;;;;;;;;;;;;;;5070304;28;1297;-75
2022/11/23 12:15:04;;;;;;;;;;;;;;;;;;5069351;28;1562;-75
2022/11/23 12:17:37;;;;;;;;;;;;;;;;;;5073088;28;1616;-75
2022/11/23 12:20:07;;;;;;;;;;;;;;;;;;5052804;28;1874;-75
2022/11/23 12:22:36;;;;;;;;;;;;;;;;;;5061374;28;1783;-75
2022/11/23 12:25:14;;;;;;;;;;;;;;;;;;5062897;28;2056;-74
2022/11/23 12:27:43;;;;;;;;;;;;;;;;;;5074289;28;1157;-74
2022/11/23 12:30:13;;;;;;;;;;;;;;;;;;5071385;28;1914;-71
2022/11/23 12:32:42;;;;;;;;;;;;;;;;;;5072261;28;1585;-72
2022/11/23 12:35:17;;;;;;;;;;;;;;;;;;5051248;28;1345;-74
2022/11/23 12:37:46;;;;;;;;;;;;;;;;;;5058231;28;1602;-74
2022/11/23 12:40:28;;;;;;;;;;;;;;;;;;5056284;28;1132;-75
2022/11/23 12:42:55;;;;;;;;;;;;;;;;;;5070588;28;1516;-74
2022/11/23 12:45:23;;;;;;;;;;;;;;;;;;5074466;28;1071;-75
2022/11/23 12:47:52;;;;;;;;;;;;;;;;;;5074488;28;758;-75
2022/11/23 12:50:21;;;;;;;;;;;;;;;;;;5074142;28;1910;-73
2022/11/23 12:53:03;;;;;;;;;;;;;;;;;;5073508;28;1392;-75
2022/11/23 12:55:31;;;;;;;;;;;;;;;;;;5071332;28;1070;-74
2022/11/23 12:57:59;;;;;;;;;;;;;;;;;;5074496;28;1063;-75
2022/11/23 13:00:25;;;;;;;;;;;;;;;;;;5056781;28;1230;-73
2022/11/23 13:02:58;;;;;;;;;;;;;;;;;;5073606;28;1316;-75
2022/11/23 13:05:30;;;;;;;;;;;;;;;;;;5074072;28;853;-75
2022/11/23 13:08:02;;;;;;;;;;;;;;;;;;5074107;28;1067;-74
2022/11/23 13:10:30;;;;;;;;;;;;;;;;;;5073975;28;1906;-75
2022/11/23 13:13:01;;;;;;;;;;;;;;;;;;5072969;28;1292;-75
2022/11/23 13:15:35;;;;;;;;;;;;;;;;;;5073974;28;1122;-75
2022/11/23 13:18:04;;;;;;;;;;;;;;;;;;5073826;28;1063;-76
2022/11/23 13:20:40;;;;;;;;;;;;;;;;;;5073740;28;912;-75
2022/11/23 13:23:06;;;;;;;;;;;;;;;;;;5073003;28;1308;-75
2022/11/23 13:25:33;;;;;;;;;;;;;;;;;;5074021;28;964;-75
2022/11/23 13:28:03;;;;;;;;;;;;;;;;;;5073888;28;814;-75
2022/11/23 13:30:30;;;;;;;;;;;;;;;;;;5073505;28;1956;-75
2022/11/23 13:32:58;;;;;;;;;;;;;;;;;;5072758;28;1328;-74
2022/11/23 13:35:42;;;;;;;;;;;;;;;;;;5055493;28;1162;-75
2022/11/23 13:38:22;;;;;;;;;;;;;;;;;;5063059;28;1188;-75
2022/11/23 13:40:49;;;;;;;;;;;;;;;;;;5073496;28;1333;-76
2022/11/23 13:43:15;;;;;;;;;;;;;;;;;;5072363;28;1308;-75
2022/11/23 13:45:44;;;;;;;;;;;;;;;;;;5073895;28;1036;-74
2022/11/23 13:48:15;;;;;;;;;;;;;;;;;;5058229;28;1071;-73
2022/11/23 13:50:55;;;;;;;;;;;;;;;;;;5057349;28;1910;-75
2022/11/23 13:53:23;;;;;;;;;;;;;;;;;;5054073;28;1419;-76
2022/11/23 13:55:49;;;;;;;;;;;;;;;;;;5073274;28;940;-76
2022/11/23 13:58:36;;;;;;;;;;;;;;;;;;5072956;28;1126;-75
2022/11/23 14:01:03;;;;;;;;;;;;;;;;;;5068020;28;1088;-76
2022/11/23 14:03:47;;;;;;;;;;;;;;;;;;5071914;28;1297;-75
2022/11/23 14:06:14;;;;;;;;;;;;;;;;;;5054827;28;1363;-76
2022/11/23 14:08:41;;;;;;;;;;;;;;;;;;5054828;28;1977;-76
2022/11/23 14:11:10;;;;;;;;;;;;;;;;;;5072429;28;1114;-75
2022/11/23 14:13:36;;;;;;;;;;;;;;;;;;5072388;28;1378;-76
2022/11/23 14:16:03;;;;;;;;;;;;;;;;;;5072684;28;878;-75
2022/11/23 14:18:41;;;;;;;;;;;;;;;;;;5072513;28;747;-75
2022/11/23 14:21:10;;;;;;;;;;;;;;;;;;5072618;28;1095;-75
2022/11/23 14:23:42;;;;;;;;;;;;;;;;;;5054131;28;1324;-75
2022/11/23 14:26:14;;;;;;;;;;;;;;;;;;5072693;28;1052;-75
2022/11/23 14:28:43;;;;;;;;;;;;;;;;;;5072642;28;861;-75
2022/11/23 14:31:12;;;;;;;;;;;;;;;;;;5071674;28;1509;-75
2022/11/23 14:33:39;;;;;;;;;;;;;;;;;;5071172;28;1443;-75
2022/11/23 14:36:06;;;;;;;;;;;;;;;;;;5054470;28;1107;-73
2022/11/23 14:38:42;;;;;;;;;;;;;;;;;;5053822;28;1136;-76
2022/11/23 14:41:08;;;;;;;;;;;;;;;;;;5072222;28;822;-76
2022/11/23 14:43:35;;;;;;;;;;;;;;;;;;5071163;28;1302;-76
2022/11/23 14:46:02;;;;;;;;;;;;;;;;;;5072405;28;916;-76
2022/11/23 14:48:29;;;;;;;;;;;;;;;;;;5072448;28;1063;-76
2022/11/23 14:50:56;;;;;;;;;;;;;;;;;;5072144;28;1914;-76
2022/11/23 14:53:23;;;;;;;;;;;;;;;;;;5071188;28;1288;-75
2022/11/23 14:55:51;;;;;;;;;;;;;;;;;;5053853;28;1136;-77
2022/11/23 14:58:17;;;;;;;;;;;;;;;;;;5071998;28;965;-76
2022/11/23 15:00:44;;;;;;;;;;;;;;;;;;5054212;28;1308;-75
2022/11/23 15:03:14;;;;;;;;;;;;;;;;;;5052877;28;1293;-76
2022/11/23 15:05:40;;;;;;;;;;;;;;;;;;5056780;28;1124;-76
2022/11/23 15:08:09;;;;;;;;;;;;;;;;;;5059264;28;1269;-76
2022/11/23 15:10:38;;;;;;;;;;;;;;;;;;5059297;28;1914;-76
2022/11/23 15:13:15;;;;;;;;;;;;;;;;;;5053264;28;1372;-76
2022/11/23 15:15:44;;;;;;;;;;;;;;;;;;5053872;28;1170;-76
2022/11/23 15:18:10;;;;;;;;;;;;;;;;;;5071716;28;1064;-75
2022/11/23 15:20:40;;;;;;;;;;;;;;;;;;5053633;28;1153;-76
2022/11/23 15:23:06;;;;;;;;;;;;;;;;;;5070882;28;1388;-75
2022/11/23 15:25:33;;;;;;;;;;;;;;;;;;5071808;28;1043;-76
2022/11/23 15:27:59;;;;;;;;;;;;;;;;;;5071741;28;762;-76
2022/11/23 15:30:28;;;;;;;;;;;;;;;;;;5071351;28;1926;-75
2022/11/23 15:32:54;;;;;;;;;;;;;;;;;;5070563;28;1281;-76
2022/11/23 15:35:21;;;;;;;;;;;;;;;;;;5071407;28;1060;-76
2022/11/23 15:37:47;;;;;;;;;;;;;;;;;;5071611;28;984;-78
2022/11/23 15:40:13;;;;;;;;;;;;;;;;;;5067387;28;951;-75
2022/11/23 15:42:40;;;;;;;;;;;;;;;;;;5014942;28;1258;-74
2022/11/23 15:45:27;;;;;;;;;;;;;;;;;;4991317;28;1520;-74
2022/11/23 15:47:55;;;;;;;;;;;;;;;;;;5006399;28;1518;-75
2022/11/23 15:50:21;;;;;;;;;;;;;;;;;;5005464;28;1992;-76
2022/11/23 15:52:48;;;;;;;;;;;;;;;;;;5006484;28;1301;-75
2022/11/23 15:55:15;;;;;;;;;;;;;;;;;;5037710;28;1011;-74
2022/11/23 15:57:42;;;;;;;;;;;;;;;;;;5057264;28;1100;-73
2022/11/23 16:00:18;;;;;;;;;;;;;;;;;;5056249;28;1594;-76
2022/11/23 16:02:44;;;;;;;;;;;;;;;;;;5068132;28;1380;-72
2022/11/23 16:05:13;;;;;;;;;;;;;;;;;;5072095;28;1063;-74
2022/11/23 16:07:49;;;;;;;;;;;;;;;;;;5070154;28;1196;-76
2022/11/23 16:10:16;;;;;;;;;;;;;;;;;;5060854;28;1921;-76
2022/11/23 16:12:47;;;;;;;;;;;;;;;;;;5062399;28;1408;-75
2022/11/23 16:15:31;;;;;;;;;;;;;;;;;;5061146;28;1421;-75
2022/11/23 16:17:57;;;;;;;;;;;;;;;;;;5070901;28;1538;-73
2022/11/23 16:20:25;;;;;;;;;;;;;;;;;;5065739;28;1373;-75
2022/11/23 16:22:51;;;;;;;;;;;;;;;;;;5051829;28;1493;-76
2022/11/23 16:25:21;;;;;;;;;;;;;;;;;;5070885;28;1177;-74
2022/11/23 16:27:47;;;;;;;;;;;;;;;;;;5071645;28;897;-76
2022/11/23 16:30:22;;;;;;;;;;;;;;;;;;5051467;28;1969;-75
2022/11/23 16:32:48;;;;;;;;;;;;;;;;;;5051673;28;1546;-75
2022/11/23 16:35:16;;;;;;;;;;;;;;;;;;5053615;28;1387;-75
2022/11/23 16:37:43;;;;;;;;;;;;;;;;;;5070199;28;1451;-74
2022/11/23 16:40:10;;;;;;;;;;;;;;;;;;5062492;28;1353;-75
2022/11/23 16:42:36;;;;;;;;;;;;;;;;;;5051847;28;1452;-74
2022/11/23 16:45:03;;;;;;;;;;;;;;;;;;5070238;28;1055;-75
2022/11/23 16:47:29;;;;;;;;;;;;;;;;;;5069116;28;1412;-75
2022/11/23 16:49:55;;;;;;;;;;;;;;;;;;5070727;28;1906;-74
2022/11/23 16:52:22;;;;;;;;;;;;;;;;;;5068874;28;1370;-75
2022/11/23 16:54:51;;;;;;;;;;;;;;;;;;5050645;28;1471;-75
2022/11/23 16:57:19;;;;;;;;;;;;;;;;;;5069298;28;1432;-75
2022/11/23 16:59:45;;;;;;;;;;;;;;;;;;5062518;28;1537;-76
2022/11/23 17:02:11;;;;;;;;;;;;;;;;;;5050574;28;1403;-76
2022/11/23 17:04:37;;;;;;;;;;;;;;;;;;5062872;28;1547;-74
2022/11/23 17:07:04;;;;;;;;;;;;;;;;;;5068511;28;1178;-77
2022/11/23 17:09:30;;;;;;;;;;;;;;;;;;5070139;28;933;-75
2022/11/23 17:11:57;;;;;;;;;;;;;;;;;;5065479;28;1906;-72
2022/11/23 17:14:24;;;;;;;;;;;;;;;;;;5068421;28;1417;-75